sensor_id;sensor_type;location;lat;lon;timestamp;temperature;humidity
56729;DHT22;42612;52.232;7.560;2023-08-08T00:00:07;18.40;57.30
56729;DHT22;42612;52.232;7.560;2023-08-08T00:02:34;18.40;57.30
56729;DHT22;42612;52.232;7.560;2023-08-08T00:04:59;18.50;57.60
56729;DHT22;42612;52.232;7.560;2023-08-08T00:07:25;18.40;57.30
56729;DHT22;42612;52.232;7.560;2023-08-08T00:09:51;18.40;57.20
56729;DHT22;42612;52.232;7.560;2023-08-08T00:12:17;18.40;57.40
56729;DHT22;42612;52.232;7.560;2023-08-08T00:14:42;18.40;57.30
56729;DHT22;42612;52.232;7.560;2023-08-08T00:17:08;18.40;57.40
56729;DHT22;42612;52.232;7.560;2023-08-08T00:19:33;18.30;57.40
56729;DHT22;42612;52.232;7.560;2023-08-08T00:21:59;18.40;57.50
56729;DHT22;42612;52.232;7.560;2023-08-08T00:24:25;18.40;57.50
56729;DHT22;42612;52.232;7.560;2023-08-08T00:26:50;18.30;57.50
56729;DHT22;42612;52.232;7.560;2023-08-08T00:29:16;18.30;57.40
56729;DHT22;42612;52.232;7.560;2023-08-08T00:31:42;18.30;56.70
56729;DHT22;42612;52.232;7.560;2023-08-08T00:34:07;18.30;57.50
56729;DHT22;42612;52.232;7.560;2023-08-08T00:36:33;18.30;57.70
56729;DHT22;42612;52.232;7.560;2023-08-08T00:38:58;18.30;57.60
56729;DHT22;42612;52.232;7.560;2023-08-08T00:41:25;18.30;57.70
56729;DHT22;42612;52.232;7.560;2023-08-08T00:43:50;18.30;57.80
56729;DHT22;42612;52.232;7.560;2023-08-08T00:46:17;18.30;57.70
56729;DHT22;42612;52.232;7.560;2023-08-08T00:48:44;18.30;57.80
56729;DHT22;42612;52.232;7.560;2023-08-08T00:51:09;18.30;57.90
56729;DHT22;42612;52.232;7.560;2023-08-08T00:53:35;18.30;57.80
56729;DHT22;42612;52.232;7.560;2023-08-08T00:56:00;18.30;57.80
56729;DHT22;42612;52.232;7.560;2023-08-08T00:58:26;18.30;57.70
56729;DHT22;42612;52.232;7.560;2023-08-08T01:00:52;18.30;58.00
56729;DHT22;42612;52.232;7.560;2023-08-08T01:03:20;18.30;58.80
56729;DHT22;42612;52.232;7.560;2023-08-08T01:08:58;18.30;58.10
56729;DHT22;42612;52.232;7.560;2023-08-08T01:11:26;18.30;58.10
56729;DHT22;42612;52.232;7.560;2023-08-08T01:13:53;18.30;58.00
56729;DHT22;42612;52.232;7.560;2023-08-08T01:16:19;18.30;58.00
56729;DHT22;42612;52.232;7.560;2023-08-08T01:18:46;18.30;58.10
56729;DHT22;42612;52.232;7.560;2023-08-08T01:21:12;18.30;58.00
56729;DHT22;42612;52.232;7.560;2023-08-08T01:23:44;18.30;58.20
56729;DHT22;42612;52.232;7.560;2023-08-08T01:26:12;18.30;58.10
56729;DHT22;42612;52.232;7.560;2023-08-08T01:28:38;18.30;58.20
56729;DHT22;42612;52.232;7.560;2023-08-08T01:31:04;18.30;58.10
56729;DHT22;42612;52.232;7.560;2023-08-08T01:33:29;18.30;58.10
56729;DHT22;42612;52.232;7.560;2023-08-08T01:36:03;18.30;58.10
56729;DHT22;42612;52.232;7.560;2023-08-08T01:38:41;18.30;58.20
56729;DHT22;42612;52.232;7.560;2023-08-08T01:41:09;18.20;58.10
56729;DHT22;42612;52.232;7.560;2023-08-08T01:43:35;18.30;58.20
56729;DHT22;42612;52.232;7.560;2023-08-08T01:46:03;18.20;58.10
56729;DHT22;42612;52.232;7.560;2023-08-08T01:48:29;18.30;58.40
56729;DHT22;42612;52.232;7.560;2023-08-08T01:50:55;18.30;58.20
56729;DHT22;42612;52.232;7.560;2023-08-08T01:53:20;18.30;58.30
56729;DHT22;42612;52.232;7.560;2023-08-08T01:55:46;18.20;58.10
56729;DHT22;42612;52.232;7.560;2023-08-08T01:58:12;18.20;58.20
56729;DHT22;42612;52.232;7.560;2023-08-08T02:00:37;18.20;58.30
56729;DHT22;42612;52.232;7.560;2023-08-08T02:03:03;18.20;58.10
56729;DHT22;42612;52.232;7.560;2023-08-08T02:05:29;18.20;58.10
56729;DHT22;42612;52.232;7.560;2023-08-08T02:07:54;18.20;58.10
56729;DHT22;42612;52.232;7.560;2023-08-08T02:10:20;18.20;58.30
56729;DHT22;42612;52.232;7.560;2023-08-08T02:12:46;18.10;58.30
56729;DHT22;42612;52.232;7.560;2023-08-08T02:15:11;18.10;58.30
56729;DHT22;42612;52.232;7.560;2023-08-08T02:17:37;18.10;58.40
56729;DHT22;42612;52.232;7.560;2023-08-08T02:20:03;18.10;58.40
56729;DHT22;42612;52.232;7.560;2023-08-08T02:22:30;18.10;58.40
56729;DHT22;42612;52.232;7.560;2023-08-08T02:24:56;18.10;58.40
56729;DHT22;42612;52.232;7.560;2023-08-08T02:27:21;18.10;58.60
56729;DHT22;42612;52.232;7.560;2023-08-08T02:29:47;18.10;58.60
56729;DHT22;42612;52.232;7.560;2023-08-08T02:32:13;18.10;58.40
56729;DHT22;42612;52.232;7.560;2023-08-08T02:34:38;18.10;58.40
56729;DHT22;42612;52.232;7.560;2023-08-08T02:37:04;18.10;58.50
56729;DHT22;42612;52.232;7.560;2023-08-08T02:39:30;18.10;58.70
56729;DHT22;42612;52.232;7.560;2023-08-08T02:41:55;18.10;58.50
56729;DHT22;42612;52.232;7.560;2023-08-08T02:44:21;18.00;58.50
56729;DHT22;42612;52.232;7.560;2023-08-08T02:46:48;18.00;58.60
56729;DHT22;42612;52.232;7.560;2023-08-08T02:49:14;18.00;58.70
56729;DHT22;42612;52.232;7.560;2023-08-08T02:51:39;18.00;58.90
56729;DHT22;42612;52.232;7.560;2023-08-08T02:54:05;18.00;58.80
56729;DHT22;42612;52.232;7.560;2023-08-08T02:56:30;18.00;58.90
56729;DHT22;42612;52.232;7.560;2023-08-08T02:58:56;18.00;58.90
56729;DHT22;42612;52.232;7.560;2023-08-08T03:01:23;18.00;59.00
56729;DHT22;42612;52.232;7.560;2023-08-08T03:03:48;18.00;59.10
56729;DHT22;42612;52.232;7.560;2023-08-08T03:06:14;18.00;59.00
56729;DHT22;42612;52.232;7.560;2023-08-08T03:08:40;18.00;59.10
56729;DHT22;42612;52.232;7.560;2023-08-08T03:11:05;18.00;59.10
56729;DHT22;42612;52.232;7.560;2023-08-08T03:13:31;18.00;59.90
56729;DHT22;42612;52.232;7.560;2023-08-08T03:15:56;18.10;59.10
56729;DHT22;42612;52.232;7.560;2023-08-08T03:18:22;18.00;59.10
56729;DHT22;42612;52.232;7.560;2023-08-08T03:20:48;18.00;58.90
56729;DHT22;42612;52.232;7.560;2023-08-08T03:23:14;18.00;58.90
56729;DHT22;42612;52.232;7.560;2023-08-08T03:25:39;18.00;58.90
56729;DHT22;42612;52.232;7.560;2023-08-08T03:28:05;18.00;60.10
56729;DHT22;42612;52.232;7.560;2023-08-08T03:30:30;18.00;59.50
56729;DHT22;42612;52.232;7.560;2023-08-08T03:32:56;18.00;59.50
56729;DHT22;42612;52.232;7.560;2023-08-08T03:35:22;18.00;59.60
56729;DHT22;42612;52.232;7.560;2023-08-08T03:37:47;18.00;59.40
56729;DHT22;42612;52.232;7.560;2023-08-08T03:40:13;18.00;59.20
56729;DHT22;42612;52.232;7.560;2023-08-08T03:42:41;18.00;59.30
56729;DHT22;42612;52.232;7.560;2023-08-08T03:45:07;18.00;59.30
56729;DHT22;42612;52.232;7.560;2023-08-08T03:47:33;18.00;59.30
56729;DHT22;42612;52.232;7.560;2023-08-08T03:49:59;18.00;59.50
56729;DHT22;42612;52.232;7.560;2023-08-08T03:52:24;18.00;59.60
56729;DHT22;42612;52.232;7.560;2023-08-08T03:54:51;18.00;59.50
56729;DHT22;42612;52.232;7.560;2023-08-08T03:57:17;18.00;59.40
56729;DHT22;42612;52.232;7.560;2023-08-08T03:59:42;18.00;59.40
56729;DHT22;42612;52.232;7.560;2023-08-08T04:02:08;18.00;59.50
56729;DHT22;42612;52.232;7.560;2023-08-08T04:04:33;18.00;59.20
56729;DHT22;42612;52.232;7.560;2023-08-08T04:06:59;17.90;59.60
56729;DHT22;42612;52.232;7.560;2023-08-08T04:09:25;18.00;59.70
56729;DHT22;42612;52.232;7.560;2023-08-08T04:11:50;18.00;59.60
56729;DHT22;42612;52.232;7.560;2023-08-08T04:14:16;18.00;60.00
56729;DHT22;42612;52.232;7.560;2023-08-08T04:16:41;17.90;59.60
56729;DHT22;42612;52.232;7.560;2023-08-08T04:19:07;18.00;59.60
56729;DHT22;42612;52.232;7.560;2023-08-08T04:21:33;17.90;59.50
56729;DHT22;42612;52.232;7.560;2023-08-08T04:23:59;17.90;59.70
56729;DHT22;42612;52.232;7.560;2023-08-08T04:26:25;17.90;59.80
56729;DHT22;42612;52.232;7.560;2023-08-08T04:28:51;17.90;59.90
56729;DHT22;42612;52.232;7.560;2023-08-08T04:31:17;17.90;59.80
56729;DHT22;42612;52.232;7.560;2023-08-08T04:33:42;17.90;59.90
56729;DHT22;42612;52.232;7.560;2023-08-08T04:36:08;17.90;59.90
56729;DHT22;42612;52.232;7.560;2023-08-08T04:38:34;17.90;59.70
56729;DHT22;42612;52.232;7.560;2023-08-08T04:40:59;17.90;59.70
56729;DHT22;42612;52.232;7.560;2023-08-08T04:43:25;17.80;59.80
56729;DHT22;42612;52.232;7.560;2023-08-08T04:45:53;17.90;59.80
56729;DHT22;42612;52.232;7.560;2023-08-08T04:48:18;17.90;60.10
56729;DHT22;42612;52.232;7.560;2023-08-08T04:50:45;17.90;60.00
56729;DHT22;42612;52.232;7.560;2023-08-08T04:53:11;17.90;60.00
56729;DHT22;42612;52.232;7.560;2023-08-08T04:55:37;17.90;60.00
56729;DHT22;42612;52.232;7.560;2023-08-08T04:58:02;17.90;60.20
56729;DHT22;42612;52.232;7.560;2023-08-08T05:00:28;17.90;59.90
56729;DHT22;42612;52.232;7.560;2023-08-08T05:02:54;17.90;60.10
56729;DHT22;42612;52.232;7.560;2023-08-08T05:05:19;17.90;60.20
56729;DHT22;42612;52.232;7.560;2023-08-08T05:07:45;17.90;60.20
56729;DHT22;42612;52.232;7.560;2023-08-08T05:10:10;17.90;60.30
56729;DHT22;42612;52.232;7.560;2023-08-08T05:12:36;17.90;60.00
56729;DHT22;42612;52.232;7.560;2023-08-08T05:15:02;17.90;60.00
56729;DHT22;42612;52.232;7.560;2023-08-08T05:17:29;17.90;60.10
56729;DHT22;42612;52.232;7.560;2023-08-08T05:19:55;17.90;60.00
56729;DHT22;42612;52.232;7.560;2023-08-08T05:22:20;17.90;60.00
56729;DHT22;42612;52.232;7.560;2023-08-08T05:24:46;17.90;60.40
56729;DHT22;42612;52.232;7.560;2023-08-08T05:27:12;17.90;60.20
56729;DHT22;42612;52.232;7.560;2023-08-08T05:29:37;17.90;60.60
56729;DHT22;42612;52.232;7.560;2023-08-08T05:32:04;17.90;60.30
56729;DHT22;42612;52.232;7.560;2023-08-08T05:34:32;17.90;60.40
56729;DHT22;42612;52.232;7.560;2023-08-08T05:36:58;17.90;60.40
56729;DHT22;42612;52.232;7.560;2023-08-08T05:39:23;17.90;60.40
56729;DHT22;42612;52.232;7.560;2023-08-08T05:41:49;18.00;60.50
56729;DHT22;42612;52.232;7.560;2023-08-08T05:44:15;18.00;60.40
56729;DHT22;42612;52.232;7.560;2023-08-08T05:46:40;18.00;60.40
56729;DHT22;42612;52.232;7.560;2023-08-08T05:49:06;18.00;60.40
56729;DHT22;42612;52.232;7.560;2023-08-08T05:51:32;18.00;60.70
56729;DHT22;42612;52.232;7.560;2023-08-08T05:53:57;18.00;60.50
56729;DHT22;42612;52.232;7.560;2023-08-08T05:56:23;18.00;60.50
56729;DHT22;42612;52.232;7.560;2023-08-08T05:58:49;18.00;60.50
56729;DHT22;42612;52.232;7.560;2023-08-08T06:01:14;18.10;61.00
56729;DHT22;42612;52.232;7.560;2023-08-08T06:03:40;18.10;60.80
56729;DHT22;42612;52.232;7.560;2023-08-08T06:06:06;18.10;60.90
56729;DHT22;42612;52.232;7.560;2023-08-08T06:08:31;18.10;60.80
56729;DHT22;42612;52.232;7.560;2023-08-08T06:10:57;18.20;60.80
56729;DHT22;42612;52.232;7.560;2023-08-08T06:13:23;18.20;60.70
56729;DHT22;42612;52.232;7.560;2023-08-08T06:15:49;18.20;61.00
56729;DHT22;42612;52.232;7.560;2023-08-08T06:18:14;18.30;60.70
56729;DHT22;42612;52.232;7.560;2023-08-08T06:20:40;18.30;60.90
56729;DHT22;42612;52.232;7.560;2023-08-08T06:23:06;18.30;60.90
56729;DHT22;42612;52.232;7.560;2023-08-08T06:25:32;18.30;60.90
56729;DHT22;42612;52.232;7.560;2023-08-08T06:27:58;18.30;60.70
56729;DHT22;42612;52.232;7.560;2023-08-08T06:30:23;18.40;60.60
56729;DHT22;42612;52.232;7.560;2023-08-08T06:32:49;18.40;60.90
56729;DHT22;42612;52.232;7.560;2023-08-08T06:35:14;18.40;60.80
56729;DHT22;42612;52.232;7.560;2023-08-08T06:37:42;18.40;60.70
56729;DHT22;42612;52.232;7.560;2023-08-08T06:40:08;18.40;60.60
56729;DHT22;42612;52.232;7.560;2023-08-08T06:42:36;18.40;60.60
56729;DHT22;42612;52.232;7.560;2023-08-08T06:45:01;18.40;60.50
56729;DHT22;42612;52.232;7.560;2023-08-08T06:47:27;18.40;60.60
56729;DHT22;42612;52.232;7.560;2023-08-08T06:49:53;18.50;60.90
56729;DHT22;42612;52.232;7.560;2023-08-08T06:52:18;18.50;60.70
56729;DHT22;42612;52.232;7.560;2023-08-08T06:54:44;18.50;60.60
56729;DHT22;42612;52.232;7.560;2023-08-08T06:57:10;18.50;60.70
56729;DHT22;42612;52.232;7.560;2023-08-08T06:59:35;18.50;60.80
56729;DHT22;42612;52.232;7.560;2023-08-08T07:02:01;18.40;60.70
56729;DHT22;42612;52.232;7.560;2023-08-08T07:04:26;18.50;60.50
56729;DHT22;42612;52.232;7.560;2023-08-08T07:06:52;18.50;60.70
56729;DHT22;42612;52.232;7.560;2023-08-08T07:09:17;18.50;60.90
56729;DHT22;42612;52.232;7.560;2023-08-08T07:11:43;18.60;60.90
56729;DHT22;42612;52.232;7.560;2023-08-08T07:14:10;18.50;60.60
56729;DHT22;42612;52.232;7.560;2023-08-08T07:19:31;18.60;60.90
56729;DHT22;42612;52.232;7.560;2023-08-08T07:21:57;18.60;60.70
56729;DHT22;42612;52.232;7.560;2023-08-08T07:24:22;18.60;60.60
56729;DHT22;42612;52.232;7.560;2023-08-08T07:26:51;18.60;60.60
56729;DHT22;42612;52.232;7.560;2023-08-08T07:29:17;18.60;61.00
56729;DHT22;42612;52.232;7.560;2023-08-08T07:31:43;18.60;60.70
56729;DHT22;42612;52.232;7.560;2023-08-08T07:34:08;18.70;60.80
56729;DHT22;42612;52.232;7.560;2023-08-08T07:36:34;18.70;60.80
56729;DHT22;42612;52.232;7.560;2023-08-08T07:38:59;18.80;60.80
56729;DHT22;42612;52.232;7.560;2023-08-08T07:41:25;18.80;60.80
56729;DHT22;42612;52.232;7.560;2023-08-08T07:43:52;18.90;60.80
56729;DHT22;42612;52.232;7.560;2023-08-08T07:46:17;18.90;60.70
56729;DHT22;42612;52.232;7.560;2023-08-08T07:48:43;19.00;60.70
56729;DHT22;42612;52.232;7.560;2023-08-08T07:51:09;19.10;60.70
56729;DHT22;42612;52.232;7.560;2023-08-08T07:53:34;19.00;60.50
56729;DHT22;42612;52.232;7.560;2023-08-08T07:56:00;19.10;60.60
56729;DHT22;42612;52.232;7.560;2023-08-08T07:58:26;19.10;60.60
56729;DHT22;42612;52.232;7.560;2023-08-08T08:00:52;19.20;60.50
56729;DHT22;42612;52.232;7.560;2023-08-08T08:03:19;19.20;61.20
56729;DHT22;42612;52.232;7.560;2023-08-08T08:05:45;19.20;60.60
56729;DHT22;42612;52.232;7.560;2023-08-08T08:08:10;19.40;60.50
56729;DHT22;42612;52.232;7.560;2023-08-08T08:10:36;19.40;60.30
56729;DHT22;42612;52.232;7.560;2023-08-08T08:13:01;19.40;60.20
56729;DHT22;42612;52.232;7.560;2023-08-08T08:15:27;19.40;60.00
56729;DHT22;42612;52.232;7.560;2023-08-08T08:17:53;19.40;59.30
56729;DHT22;42612;52.232;7.560;2023-08-08T08:20:19;19.40;59.80
56729;DHT22;42612;52.232;7.560;2023-08-08T08:22:44;19.30;59.80
56729;DHT22;42612;52.232;7.560;2023-08-08T08:25:10;19.40;59.80
56729;DHT22;42612;52.232;7.560;2023-08-08T08:27:36;19.40;59.70
56729;DHT22;42612;52.232;7.560;2023-08-08T08:30:03;19.50;59.50
56729;DHT22;42612;52.232;7.560;2023-08-08T08:32:33;19.40;59.50
56729;DHT22;42612;52.232;7.560;2023-08-08T08:35:00;19.40;59.60
56729;DHT22;42612;52.232;7.560;2023-08-08T08:37:26;19.50;59.70
56729;DHT22;42612;52.232;7.560;2023-08-08T08:39:52;19.50;59.80
56729;DHT22;42612;52.232;7.560;2023-08-08T08:42:18;19.50;59.40
56729;DHT22;42612;52.232;7.560;2023-08-08T08:44:43;19.60;59.70
56729;DHT22;42612;52.232;7.560;2023-08-08T08:47:09;19.60;59.50
56729;DHT22;42612;52.232;7.560;2023-08-08T08:49:38;19.70;59.40
56729;DHT22;42612;52.232;7.560;2023-08-08T08:52:04;19.70;59.30
56729;DHT22;42612;52.232;7.560;2023-08-08T08:54:31;19.70;59.50
56729;DHT22;42612;52.232;7.560;2023-08-08T08:56:57;19.80;59.40
56729;DHT22;42612;52.232;7.560;2023-08-08T08:59:24;19.90;59.40
56729;DHT22;42612;52.232;7.560;2023-08-08T09:01:50;19.90;59.00
56729;DHT22;42612;52.232;7.560;2023-08-08T09:04:16;19.90;59.40
56729;DHT22;42612;52.232;7.560;2023-08-08T09:06:44;20.00;58.90
56729;DHT22;42612;52.232;7.560;2023-08-08T09:09:11;20.10;59.40
56729;DHT22;42612;52.232;7.560;2023-08-08T09:11:38;20.20;59.40
56729;DHT22;42612;52.232;7.560;2023-08-08T09:14:14;20.20;59.20
56729;DHT22;42612;52.232;7.560;2023-08-08T09:16:43;20.30;59.20
56729;DHT22;42612;52.232;7.560;2023-08-08T09:19:09;20.30;59.20
56729;DHT22;42612;52.232;7.560;2023-08-08T09:21:34;20.40;59.20
56729;DHT22;42612;52.232;7.560;2023-08-08T09:24:00;20.40;58.90
56729;DHT22;42612;52.232;7.560;2023-08-08T09:26:26;20.50;59.10
56729;DHT22;42612;52.232;7.560;2023-08-08T09:28:53;20.50;58.20
56729;DHT22;42612;52.232;7.560;2023-08-08T09:31:19;20.60;58.10
56729;DHT22;42612;52.232;7.560;2023-08-08T09:33:45;20.60;58.00
56729;DHT22;42612;52.232;7.560;2023-08-08T09:36:14;20.60;57.80
56729;DHT22;42612;52.232;7.560;2023-08-08T09:38:40;20.60;57.70
56729;DHT22;42612;52.232;7.560;2023-08-08T09:41:06;20.60;57.60
56729;DHT22;42612;52.232;7.560;2023-08-08T09:43:32;20.70;58.10
56729;DHT22;42612;52.232;7.560;2023-08-08T09:45:58;20.70;57.80
56729;DHT22;42612;52.232;7.560;2023-08-08T09:48:29;20.70;58.00
56729;DHT22;42612;52.232;7.560;2023-08-08T09:50:57;20.80;57.50
56729;DHT22;42612;52.232;7.560;2023-08-08T09:53:25;20.80;57.40
56729;DHT22;42612;52.232;7.560;2023-08-08T09:55:55;20.90;57.60
56729;DHT22;42612;52.232;7.560;2023-08-08T09:58:22;20.80;57.60
56729;DHT22;42612;52.232;7.560;2023-08-08T10:00:51;20.80;57.00
56729;DHT22;42612;52.232;7.560;2023-08-08T10:03:16;20.90;57.60
56729;DHT22;42612;52.232;7.560;2023-08-08T10:05:43;20.90;57.00
56729;DHT22;42612;52.232;7.560;2023-08-08T10:08:09;20.90;55.80
56729;DHT22;42612;52.232;7.560;2023-08-08T10:10:34;20.90;57.00
56729;DHT22;42612;52.232;7.560;2023-08-08T10:13:01;20.90;57.00
56729;DHT22;42612;52.232;7.560;2023-08-08T10:15:27;20.90;57.00
56729;DHT22;42612;52.232;7.560;2023-08-08T10:17:56;20.90;57.10
56729;DHT22;42612;52.232;7.560;2023-08-08T10:20:23;20.90;56.90
56729;DHT22;42612;52.232;7.560;2023-08-08T10:22:50;20.90;56.90
56729;DHT22;42612;52.232;7.560;2023-08-08T10:25:24;20.90;56.80
56729;DHT22;42612;52.232;7.560;2023-08-08T10:28:01;20.90;55.60
56729;DHT22;42612;52.232;7.560;2023-08-08T10:30:40;20.90;56.10
56729;DHT22;42612;52.232;7.560;2023-08-08T10:33:14;20.80;56.40
56729;DHT22;42612;52.232;7.560;2023-08-08T10:36:04;20.80;56.60
56729;DHT22;42612;52.232;7.560;2023-08-08T10:38:41;20.80;56.60
56729;DHT22;42612;52.232;7.560;2023-08-08T10:41:12;20.80;56.60
56729;DHT22;42612;52.232;7.560;2023-08-08T10:43:38;20.80;56.50
56729;DHT22;42612;52.232;7.560;2023-08-08T10:46:06;20.80;55.70
56729;DHT22;42612;52.232;7.560;2023-08-08T10:48:32;20.80;56.20
56729;DHT22;42612;52.232;7.560;2023-08-08T10:50:58;20.80;55.50
56729;DHT22;42612;52.232;7.560;2023-08-08T10:53:27;20.80;56.30
56729;DHT22;42612;52.232;7.560;2023-08-08T10:55:57;20.70;56.70
56729;DHT22;42612;52.232;7.560;2023-08-08T10:58:34;20.70;55.50
56729;DHT22;42612;52.232;7.560;2023-08-08T11:01:07;20.70;56.00
56729;DHT22;42612;52.232;7.560;2023-08-08T11:03:35;20.70;55.70
56729;DHT22;42612;52.232;7.560;2023-08-08T11:06:01;20.60;55.90
56729;DHT22;42612;52.232;7.560;2023-08-08T11:08:32;20.60;55.30
56729;DHT22;42612;52.232;7.560;2023-08-08T11:10:58;20.60;55.90
56729;DHT22;42612;52.232;7.560;2023-08-08T11:13:24;20.60;56.10
56729;DHT22;42612;52.232;7.560;2023-08-08T11:15:50;20.60;56.30
56729;DHT22;42612;52.232;7.560;2023-08-08T11:18:16;20.60;55.80
56729;DHT22;42612;52.232;7.560;2023-08-08T11:20:42;20.60;55.90
56729;DHT22;42612;52.232;7.560;2023-08-08T11:23:07;20.60;55.90
56729;DHT22;42612;52.232;7.560;2023-08-08T11:25:35;20.60;55.80
56729;DHT22;42612;52.232;7.560;2023-08-08T11:28:02;20.60;55.30
56729;DHT22;42612;52.232;7.560;2023-08-08T11:30:29;20.60;55.70
56729;DHT22;42612;52.232;7.560;2023-08-08T11:32:56;20.60;55.90
56729;DHT22;42612;52.232;7.560;2023-08-08T11:35:22;20.60;56.00
56729;DHT22;42612;52.232;7.560;2023-08-08T11:37:52;20.60;56.00
56729;DHT22;42612;52.232;7.560;2023-08-08T11:40:19;20.70;56.10
56729;DHT22;42612;52.232;7.560;2023-08-08T11:42:45;20.80;56.30
56729;DHT22;42612;52.232;7.560;2023-08-08T11:45:12;20.80;56.50
56729;DHT22;42612;52.232;7.560;2023-08-08T11:47:38;20.90;55.90
56729;DHT22;42612;52.232;7.560;2023-08-08T11:50:05;21.00;56.20
56729;DHT22;42612;52.232;7.560;2023-08-08T11:52:34;21.00;55.90
56729;DHT22;42612;52.232;7.560;2023-08-08T11:55:00;21.00;56.10
56729;DHT22;42612;52.232;7.560;2023-08-08T11:57:26;21.00;56.00
56729;DHT22;42612;52.232;7.560;2023-08-08T11:59:53;21.10;55.80
56729;DHT22;42612;52.232;7.560;2023-08-08T12:02:19;21.00;55.40
56729;DHT22;42612;52.232;7.560;2023-08-08T12:04:45;21.10;55.30
56729;DHT22;42612;52.232;7.560;2023-08-08T12:07:11;21.10;55.40
56729;DHT22;42612;52.232;7.560;2023-08-08T12:09:37;21.10;55.60
56729;DHT22;42612;52.232;7.560;2023-08-08T12:12:03;21.10;55.60
56729;DHT22;42612;52.232;7.560;2023-08-08T12:14:29;21.00;55.50
56729;DHT22;42612;52.232;7.560;2023-08-08T12:16:55;21.00;55.50
56729;DHT22;42612;52.232;7.560;2023-08-08T12:19:24;20.90;55.50
56729;DHT22;42612;52.232;7.560;2023-08-08T12:21:50;20.80;55.50
56729;DHT22;42612;52.232;7.560;2023-08-08T12:24:19;20.80;55.60
56729;DHT22;42612;52.232;7.560;2023-08-08T12:26:45;20.80;55.80
56729;DHT22;42612;52.232;7.560;2023-08-08T12:29:11;20.70;55.80
56729;DHT22;42612;52.232;7.560;2023-08-08T12:31:37;20.70;55.70
56729;DHT22;42612;52.232;7.560;2023-08-08T12:34:03;20.70;56.00
56729;DHT22;42612;52.232;7.560;2023-08-08T12:36:30;20.70;56.10
56729;DHT22;42612;52.232;7.560;2023-08-08T12:38:56;20.70;56.00
56729;DHT22;42612;52.232;7.560;2023-08-08T12:41:22;20.70;56.00
56729;DHT22;42612;52.232;7.560;2023-08-08T12:43:48;20.70;56.00
56729;DHT22;42612;52.232;7.560;2023-08-08T12:46:15;20.80;56.40
56729;DHT22;42612;52.232;7.560;2023-08-08T12:48:40;20.90;56.40
56729;DHT22;42612;52.232;7.560;2023-08-08T12:51:06;21.00;56.60
56729;DHT22;42612;52.232;7.560;2023-08-08T12:53:34;21.10;56.50
56729;DHT22;42612;52.232;7.560;2023-08-08T12:56:00;21.30;56.60
56729;DHT22;42612;52.232;7.560;2023-08-08T12:58:25;21.40;56.60
56729;DHT22;42612;52.232;7.560;2023-08-08T13:00:51;21.50;56.30
56729;DHT22;42612;52.232;7.560;2023-08-08T13:03:17;21.60;56.30
56729;DHT22;42612;52.232;7.560;2023-08-08T13:05:42;21.80;56.30
56729;DHT22;42612;52.232;7.560;2023-08-08T13:08:08;21.80;56.00
56729;DHT22;42612;52.232;7.560;2023-08-08T13:10:34;21.90;54.30
56729;DHT22;42612;52.232;7.560;2023-08-08T13:13:00;21.90;55.00
56729;DHT22;42612;52.232;7.560;2023-08-08T13:15:26;22.00;55.00
56729;DHT22;42612;52.232;7.560;2023-08-08T13:17:52;22.00;54.70
56729;DHT22;42612;52.232;7.560;2023-08-08T13:20:17;22.00;54.40
56729;DHT22;42612;52.232;7.560;2023-08-08T13:22:43;21.90;52.60
56729;DHT22;42612;52.232;7.560;2023-08-08T13:25:09;21.90;53.80
56729;DHT22;42612;52.232;7.560;2023-08-08T13:27:35;21.90;52.50
56729;DHT22;42612;52.232;7.560;2023-08-08T13:30:01;21.90;53.80
56729;DHT22;42612;52.232;7.560;2023-08-08T13:32:27;21.90;53.40
56729;DHT22;42612;52.232;7.560;2023-08-08T13:34:53;22.00;52.60
56729;DHT22;42612;52.232;7.560;2023-08-08T13:37:19;22.00;52.10
56729;DHT22;42612;52.232;7.560;2023-08-08T13:39:44;22.10;54.00
56729;DHT22;42612;52.232;7.560;2023-08-08T13:42:10;22.10;54.30
56729;DHT22;42612;52.232;7.560;2023-08-08T13:44:36;22.20;53.80
56729;DHT22;42612;52.232;7.560;2023-08-08T13:47:02;22.20;52.20
56729;DHT22;42612;52.232;7.560;2023-08-08T13:49:27;22.20;53.50
56729;DHT22;42612;52.232;7.560;2023-08-08T13:51:53;22.30;51.70
56729;DHT22;42612;52.232;7.560;2023-08-08T13:54:19;22.30;53.20
56729;DHT22;42612;52.232;7.560;2023-08-08T13:56:45;22.30;53.30
56729;DHT22;42612;52.232;7.560;2023-08-08T13:59:11;22.30;53.50
56729;DHT22;42612;52.232;7.560;2023-08-08T14:01:36;22.30;53.20
56729;DHT22;42612;52.232;7.560;2023-08-08T14:04:02;22.40;53.60
56729;DHT22;42612;52.232;7.560;2023-08-08T14:06:28;22.40;53.40
56729;DHT22;42612;52.232;7.560;2023-08-08T14:08:54;22.50;53.20
56729;DHT22;42612;52.232;7.560;2023-08-08T14:11:20;22.50;53.00
56729;DHT22;42612;52.232;7.560;2023-08-08T14:13:45;22.50;51.30
56729;DHT22;42612;52.232;7.560;2023-08-08T14:16:11;22.50;51.90
56729;DHT22;42612;52.232;7.560;2023-08-08T14:18:37;22.50;52.50
56729;DHT22;42612;52.232;7.560;2023-08-08T14:21:03;22.50;52.10
56729;DHT22;42612;52.232;7.560;2023-08-08T14:23:29;22.50;51.50
56729;DHT22;42612;52.232;7.560;2023-08-08T14:25:55;22.50;52.30
56729;DHT22;42612;52.232;7.560;2023-08-08T14:28:21;22.40;52.40
56729;DHT22;42612;52.232;7.560;2023-08-08T14:30:46;22.40;52.60
56729;DHT22;42612;52.232;7.560;2023-08-08T14:33:15;22.40;52.10
56729;DHT22;42612;52.232;7.560;2023-08-08T14:35:41;22.40;52.80
56729;DHT22;42612;52.232;7.560;2023-08-08T14:38:07;22.40;51.90
56729;DHT22;42612;52.232;7.560;2023-08-08T14:40:33;22.50;52.50
56729;DHT22;42612;52.232;7.560;2023-08-08T14:43:00;22.50;52.90
56729;DHT22;42612;52.232;7.560;2023-08-08T14:45:28;22.50;51.70
56729;DHT22;42612;52.232;7.560;2023-08-08T14:47:55;22.60;52.80
56729;DHT22;42612;52.232;7.560;2023-08-08T14:50:20;22.60;52.50
56729;DHT22;42612;52.232;7.560;2023-08-08T14:52:46;22.60;52.00
56729;DHT22;42612;52.232;7.560;2023-08-08T14:55:11;22.60;52.50
56729;DHT22;42612;52.232;7.560;2023-08-08T14:57:37;22.60;52.10
56729;DHT22;42612;52.232;7.560;2023-08-08T15:00:03;22.70;52.00
56729;DHT22;42612;52.232;7.560;2023-08-08T15:02:30;22.60;51.80
56729;DHT22;42612;52.232;7.560;2023-08-08T15:04:55;22.60;52.00
56729;DHT22;42612;52.232;7.560;2023-08-08T15:07:21;22.70;52.00
56729;DHT22;42612;52.232;7.560;2023-08-08T15:09:47;22.70;52.20
56729;DHT22;42612;52.232;7.560;2023-08-08T15:12:17;22.60;52.10
56729;DHT22;42612;52.232;7.560;2023-08-08T15:14:43;22.60;52.40
56729;DHT22;42612;52.232;7.560;2023-08-08T15:17:08;22.60;53.20
56729;DHT22;42612;52.232;7.560;2023-08-08T15:19:34;22.60;50.90
56729;DHT22;42612;52.232;7.560;2023-08-08T15:22:00;22.60;52.10
56729;DHT22;42612;52.232;7.560;2023-08-08T15:24:25;22.70;52.40
56729;DHT22;42612;52.232;7.560;2023-08-08T15:26:51;22.70;52.20
56729;DHT22;42612;52.232;7.560;2023-08-08T15:29:17;22.80;52.10